CST,Max TemperatureF,Mean TemperatureF,Min TemperatureF,Max Dew PointF,MeanDew PointF,Min DewpointF,Max Humidity, Mean Humidity, Min Humidity, Max Sea Level PressureIn, Mean Sea Level PressureIn, Min Sea Level PressureIn, Max VisibilityMiles, Mean VisibilityMiles, Min VisibilityMiles, Max Wind SpeedMPH, Mean Wind SpeedMPH, Max Gust SpeedMPH,PrecipitationIn, CloudCover, Events, WindDirDegrees
2013-1-1,71,62,53,64,61,52,94,85,73,30.11,30.02,29.97,10,7,0,14,7,20,0.00,5,Fog-Rain,176
2013-1-2,57,52,44,55,46,41,94,80,67,30.18,30.10,30.00,10,10,7,12,8,20,0.00,7,Rain,350
2013-1-3,46,40,35,41,37,30,93,82,62,30.36,30.26,30.18,10,9,5,13,7,18,0.26,5,Rain,356
2013-1-4,55,45,35,36,30,23,81,59,29,30.43,30.37,30.32,10,10,10,12,5,17,0.03,0,,12
2013-1-5,53,47,41,36,32,30,70,55,44,30.37,30.31,30.24,10,10,10,12,6,17,0.00,2,Rain,43
2013-1-6,53,50,46,45,39,36,82,67,51,30.28,30.23,30.18,10,10,10,12,5,20,0.00,7,Rain,12
2013-1-7,62,50,39,41,35,27,87,63,26,30.32,30.26,30.20,10,10,10,13,6,17,0.00,0,,49
2013-1-8,64,56,48,55,49,37,82,72,58,30.27,30.20,30.16,10,10,10,14,7,18,0.00,6,,68
2013-1-9,68,64,60,64,61,54,94,90,72,30.26,30.22,30.18,10,4,0,14,9,22,0.01,8,Fog-Rain,72
2013-1-10,71,66,62,64,63,61,94,87,78,30.25,30.19,30.05,10,6,1,22,12,29,0.11,7,Rain-Thunderstorm,104
2013-1-11,75,68,62,66,64,59,94,82,69,30.17,30.12,30.08,10,8,2,13,7,18,0.24,4,Rain,133
2013-1-12,73,70,66,64,64,64,94,84,73,30.14,30.06,30.00,10,7,5,15,9,22,0.00,5,,126
2013-1-13,73,70,68,66,65,64,88,85,78,30.03,30.01,29.97,10,6,4,15,9,22,0.00,5,,146
2013-1-14,73,64,55,68,64,54,94,86,73,30.11,30.07,30.02,10,6,0,13,6,17,0.00,6,Fog,149
2013-1-15,73,64,55,68,62,54,94,87,78,30.06,30.00,29.95,10,6,2,14,5,18,0.02,7,Rain,162
2013-1-16,69,56,44,68,53,43,94,92,83,30.05,29.99,29.94,10,7,1,15,7,22,0.08,8,Rain,319
2013-1-17,50,44,37,43,35,30,93,73,50,30.35,30.18,30.05,10,9,2,22,12,31,0.01,6,,296
2013-1-18,59,48,37,37,33,28,93,65,31,30.51,30.42,30.35,10,10,10,12,7,20,0.00,0,,12
2013-1-19,62,52,41,45,39,32,93,68,39,30.41,30.32,30.26,10,10,1,10,2,,0.00,1,,54
2013-1-20,64,50,37,46,41,36,93,75,39,30.28,30.21,30.15,10,9,0,10,1,9,0.11,0,Fog,285
2013-1-21,66,54,42,46,39,32,93,63,30,30.23,30.17,30.13,10,8,0,9,2,,0.07,0,Fog,344
2013-1-22,59,48,37,39,33,25,93,61,29,30.37,30.31,30.21,10,10,10,10,5,16,0.00,0,,10
2013-1-23,62,48,35,48,42,34,93,74,48,30.42,30.36,30.32,10,10,7,9,2,,0.00,0,,200
2013-1-24,68,54,41,55,49,39,94,77,52,30.36,30.31,30.25,10,8,0,14,4,20,0.00,2,Fog,241
2013-1-25,69,56,44,59,52,43,94,78,53,30.32,30.24,30.18,10,7,0,13,3,20,0.00,2,Fog,191
2013-1-26,71,61,51,61,55,50,94,81,60,30.27,30.23,30.19,10,6,0,13,3,16,0.00,3,Fog,262
2013-1-27,69,60,50,61,55,48,100,85,64,30.33,30.28,30.25,10,6,0,14,4,18,0.00,4,Fog,90
2013-1-28,71,61,51,64,59,50,94,85,69,30.31,30.24,30.17,10,7,0,15,5,17,0.00,6,Fog,92
2013-1-29,73,70,68,68,65,64,94,84,73,30.16,30.05,29.90,10,6,2,15,11,26,0.00,7,Rain,134
2013-1-30,73,60,44,68,54,28,94,78,44,30.13,29.86,29.70,10,7,2,25,15,37,0.07,6,Rain,224
2013-1-31,59,46,33,39,28,18,87,50,20,30.33,30.25,30.13,10,10,10,15,8,22,0.00,0,,303